sensor_id;sensor_type;location;lat;lon;timestamp;temperature;humidity
13123;DHT22;6627;50.920;12.050;2023-03-26T00:01:33;8.10;99.90
13123;DHT22;6627;50.920;12.050;2023-03-26T00:04:02;8.10;99.90
13123;DHT22;6627;50.920;12.050;2023-03-26T00:06:33;8.10;1.00
13123;DHT22;6627;50.920;12.050;2023-03-26T00:09:07;8.00;1.00
13123;DHT22;6627;50.920;12.050;2023-03-26T00:11:37;8.00;99.90
13123;DHT22;6627;50.920;12.050;2023-03-26T00:14:04;8.00;99.90
13123;DHT22;6627;50.920;12.050;2023-03-26T00:16:32;8.00;99.90
13123;DHT22;6627;50.920;12.050;2023-03-26T00:19:00;8.00;99.90
13123;DHT22;6627;50.920;12.050;2023-03-26T00:21:30;8.00;99.90
13123;DHT22;6627;50.920;12.050;2023-03-26T00:24:00;8.00;99.90
13123;DHT22;6627;50.920;12.050;2023-03-26T00:26:31;8.00;1.00
13123;DHT22;6627;50.920;12.050;2023-03-26T00:28:59;7.90;1.00
13123;DHT22;6627;50.920;12.050;2023-03-26T00:31:28;7.90;99.90
13123;DHT22;6627;50.920;12.050;2023-03-26T00:33:56;7.90;99.90
13123;DHT22;6627;50.920;12.050;2023-03-26T00:36:28;7.90;1.00
13123;DHT22;6627;50.920;12.050;2023-03-26T00:38:55;7.80;1.00
13123;DHT22;6627;50.920;12.050;2023-03-26T00:41:24;7.80;1.00
13123;DHT22;6627;50.920;12.050;2023-03-26T00:43:58;7.80;1.00
13123;DHT22;6627;50.920;12.050;2023-03-26T00:46:27;7.80;1.00
13123;DHT22;6627;50.920;12.050;2023-03-26T00:48:55;7.90;99.90
13123;DHT22;6627;50.920;12.050;2023-03-26T00:51:25;7.90;99.90
13123;DHT22;6627;50.920;12.050;2023-03-26T00:53:53;7.80;99.90
13123;DHT22;6627;50.920;12.050;2023-03-26T00:56:22;7.80;1.00
13123;DHT22;6627;50.920;12.050;2023-03-26T00:58:49;7.90;1.00
13123;DHT22;6627;50.920;12.050;2023-03-26T01:01:21;7.90;1.00
13123;DHT22;6627;50.920;12.050;2023-03-26T01:03:52;7.90;99.90
13123;DHT22;6627;50.920;12.050;2023-03-26T01:09:01;7.90;1.00
13123;DHT22;6627;50.920;12.050;2023-03-26T01:11:33;7.90;1.00
13123;DHT22;6627;50.920;12.050;2023-03-26T01:14:05;7.90;1.00
13123;DHT22;6627;50.920;12.050;2023-03-26T01:16:39;7.90;1.00
13123;DHT22;6627;50.920;12.050;2023-03-26T01:19:16;7.90;99.90
13123;DHT22;6627;50.920;12.050;2023-03-26T01:21:49;7.90;1.00
13123;DHT22;6627;50.920;12.050;2023-03-26T01:24:19;7.90;1.00
13123;DHT22;6627;50.920;12.050;2023-03-26T01:26:53;7.90;1.00
13123;DHT22;6627;50.920;12.050;2023-03-26T01:29:33;7.90;1.00
13123;DHT22;6627;50.920;12.050;2023-03-26T01:32:16;7.80;1.00
13123;DHT22;6627;50.920;12.050;2023-03-26T01:35:00;7.90;1.00
13123;DHT22;6627;50.920;12.050;2023-03-26T01:37:45;7.80;1.00
13123;DHT22;6627;50.920;12.050;2023-03-26T01:40:28;7.80;48.40
13123;DHT22;6627;50.920;12.050;2023-03-26T01:43:09;7.80;99.90
13123;DHT22;6627;50.920;12.050;2023-03-26T01:45:45;7.80;99.90
13123;DHT22;6627;50.920;12.050;2023-03-26T01:48:16;7.70;99.90
13123;DHT22;6627;50.920;12.050;2023-03-26T01:50:44;7.70;99.90
13123;DHT22;6627;50.920;12.050;2023-03-26T01:53:13;7.70;99.90
13123;DHT22;6627;50.920;12.050;2023-03-26T01:55:51;7.70;99.90
13123;DHT22;6627;50.920;12.050;2023-03-26T01:58:33;7.80;99.90
13123;DHT22;6627;50.920;12.050;2023-03-26T02:01:11;7.70;99.90
13123;DHT22;6627;50.920;12.050;2023-03-26T02:03:52;7.70;99.90
13123;DHT22;6627;50.920;12.050;2023-03-26T02:06:29;7.70;99.90
13123;DHT22;6627;50.920;12.050;2023-03-26T02:09:04;7.70;99.90
13123;DHT22;6627;50.920;12.050;2023-03-26T02:11:39;7.70;99.90
13123;DHT22;6627;50.920;12.050;2023-03-26T02:14:07;7.60;99.90
13123;DHT22;6627;50.920;12.050;2023-03-26T02:16:35;7.80;99.90
13123;DHT22;6627;50.920;12.050;2023-03-26T02:19:03;7.60;99.90
13123;DHT22;6627;50.920;12.050;2023-03-26T02:21:30;7.70;99.90
13123;DHT22;6627;50.920;12.050;2023-03-26T02:24:00;7.60;99.90
13123;DHT22;6627;50.920;12.050;2023-03-26T02:26:29;7.70;99.90
13123;DHT22;6627;50.920;12.050;2023-03-26T02:28:59;7.60;99.90
13123;DHT22;6627;50.920;12.050;2023-03-26T02:31:27;7.70;99.90
13123;DHT22;6627;50.920;12.050;2023-03-26T02:33:55;7.70;99.90
13123;DHT22;6627;50.920;12.050;2023-03-26T02:36:23;7.70;99.90
13123;DHT22;6627;50.920;12.050;2023-03-26T02:38:52;7.70;99.90
13123;DHT22;6627;50.920;12.050;2023-03-26T02:41:22;7.70;99.90
13123;DHT22;6627;50.920;12.050;2023-03-26T02:43:50;7.70;99.90
13123;DHT22;6627;50.920;12.050;2023-03-26T02:46:18;7.70;99.90
13123;DHT22;6627;50.920;12.050;2023-03-26T02:48:46;7.70;99.90
13123;DHT22;6627;50.920;12.050;2023-03-26T02:51:13;7.70;99.90
13123;DHT22;6627;50.920;12.050;2023-03-26T02:53:43;7.60;99.90
13123;DHT22;6627;50.920;12.050;2023-03-26T02:56:10;7.50;99.90
13123;DHT22;6627;50.920;12.050;2023-03-26T02:58:37;7.60;99.90
13123;DHT22;6627;50.920;12.050;2023-03-26T03:01:05;7.60;99.90
13123;DHT22;6627;50.920;12.050;2023-03-26T03:03:33;7.40;99.90
13123;DHT22;6627;50.920;12.050;2023-03-26T03:06:01;7.60;99.90
13123;DHT22;6627;50.920;12.050;2023-03-26T03:08:28;7.60;99.90
13123;DHT22;6627;50.920;12.050;2023-03-26T03:10:56;7.60;99.90
13123;DHT22;6627;50.920;12.050;2023-03-26T03:13:25;7.60;99.90
13123;DHT22;6627;50.920;12.050;2023-03-26T03:15:52;7.60;99.90
13123;DHT22;6627;50.920;12.050;2023-03-26T03:18:19;7.60;99.90
13123;DHT22;6627;50.920;12.050;2023-03-26T03:20:48;7.50;99.90
13123;DHT22;6627;50.920;12.050;2023-03-26T03:23:15;7.60;99.90
13123;DHT22;6627;50.920;12.050;2023-03-26T03:25:43;7.60;99.90
13123;DHT22;6627;50.920;12.050;2023-03-26T03:28:10;7.60;99.90
13123;DHT22;6627;50.920;12.050;2023-03-26T03:30:38;7.60;99.90
13123;DHT22;6627;50.920;12.050;2023-03-26T03:33:06;7.70;99.90
13123;DHT22;6627;50.920;12.050;2023-03-26T03:35:33;7.60;99.90
13123;DHT22;6627;50.920;12.050;2023-03-26T03:38:02;7.60;99.90
13123;DHT22;6627;50.920;12.050;2023-03-26T03:40:29;7.50;99.90
13123;DHT22;6627;50.920;12.050;2023-03-26T03:42:56;7.60;99.90
13123;DHT22;6627;50.920;12.050;2023-03-26T03:45:23;7.60;99.90
13123;DHT22;6627;50.920;12.050;2023-03-26T03:47:51;7.50;99.90
13123;DHT22;6627;50.920;12.050;2023-03-26T03:50:19;7.60;99.90
13123;DHT22;6627;50.920;12.050;2023-03-26T03:52:46;7.60;99.90
13123;DHT22;6627;50.920;12.050;2023-03-26T03:55:15;7.50;99.90
13123;DHT22;6627;50.920;12.050;2023-03-26T03:57:43;7.60;99.90
13123;DHT22;6627;50.920;12.050;2023-03-26T04:00:11;7.60;99.90
13123;DHT22;6627;50.920;12.050;2023-03-26T04:02:40;7.60;99.90
13123;DHT22;6627;50.920;12.050;2023-03-26T04:05:07;7.60;99.90
13123;DHT22;6627;50.920;12.050;2023-03-26T04:07:36;7.60;99.90
13123;DHT22;6627;50.920;12.050;2023-03-26T04:10:05;7.80;99.90
13123;DHT22;6627;50.920;12.050;2023-03-26T04:12:35;7.60;99.90
13123;DHT22;6627;50.920;12.050;2023-03-26T04:15:02;7.60;99.90
13123;DHT22;6627;50.920;12.050;2023-03-26T04:17:30;7.60;99.90
13123;DHT22;6627;50.920;12.050;2023-03-26T04:19:57;7.50;99.90
13123;DHT22;6627;50.920;12.050;2023-03-26T04:22:31;7.60;99.90
13123;DHT22;6627;50.920;12.050;2023-03-26T04:24:59;7.60;99.90
13123;DHT22;6627;50.920;12.050;2023-03-26T04:27:30;7.40;99.90
13123;DHT22;6627;50.920;12.050;2023-03-26T04:30:02;7.40;99.90
13123;DHT22;6627;50.920;12.050;2023-03-26T04:32:32;7.30;99.90
13123;DHT22;6627;50.920;12.050;2023-03-26T04:35:01;7.40;99.90
13123;DHT22;6627;50.920;12.050;2023-03-26T04:37:32;7.30;99.90
13123;DHT22;6627;50.920;12.050;2023-03-26T04:40:01;7.20;99.90
13123;DHT22;6627;50.920;12.050;2023-03-26T04:42:35;7.30;99.90
13123;DHT22;6627;50.920;12.050;2023-03-26T04:45:08;7.30;99.90
13123;DHT22;6627;50.920;12.050;2023-03-26T04:47:36;7.30;99.90
13123;DHT22;6627;50.920;12.050;2023-03-26T04:50:05;7.30;99.90
13123;DHT22;6627;50.920;12.050;2023-03-26T04:52:35;7.40;99.90
13123;DHT22;6627;50.920;12.050;2023-03-26T04:55:05;7.40;99.90
13123;DHT22;6627;50.920;12.050;2023-03-26T04:57:39;7.40;99.90
13123;DHT22;6627;50.920;12.050;2023-03-26T05:00:15;7.50;99.90
13123;DHT22;6627;50.920;12.050;2023-03-26T05:02:44;7.50;99.90
13123;DHT22;6627;50.920;12.050;2023-03-26T05:05:15;7.50;99.90
13123;DHT22;6627;50.920;12.050;2023-03-26T05:07:43;7.60;99.90
13123;DHT22;6627;50.920;12.050;2023-03-26T05:10:13;7.60;99.90
13123;DHT22;6627;50.920;12.050;2023-03-26T05:12:41;7.50;99.90
13123;DHT22;6627;50.920;12.050;2023-03-26T05:15:10;7.60;99.90
13123;DHT22;6627;50.920;12.050;2023-03-26T05:17:40;7.60;99.90
13123;DHT22;6627;50.920;12.050;2023-03-26T05:20:14;7.60;99.90
13123;DHT22;6627;50.920;12.050;2023-03-26T05:22:46;7.60;99.90
13123;DHT22;6627;50.920;12.050;2023-03-26T05:25:14;7.60;99.90
13123;DHT22;6627;50.920;12.050;2023-03-26T05:27:41;7.60;99.90
13123;DHT22;6627;50.920;12.050;2023-03-26T05:30:14;7.70;99.90
13123;DHT22;6627;50.920;12.050;2023-03-26T05:32:43;7.70;99.90
13123;DHT22;6627;50.920;12.050;2023-03-26T05:35:10;7.60;99.90
13123;DHT22;6627;50.920;12.050;2023-03-26T05:37:40;7.70;99.90
13123;DHT22;6627;50.920;12.050;2023-03-26T05:40:10;7.70;99.90
13123;DHT22;6627;50.920;12.050;2023-03-26T05:42:40;7.70;99.90
13123;DHT22;6627;50.920;12.050;2023-03-26T05:45:09;7.80;99.90
13123;DHT22;6627;50.920;12.050;2023-03-26T05:47:40;7.80;99.90
13123;DHT22;6627;50.920;12.050;2023-03-26T05:50:08;7.80;99.90
13123;DHT22;6627;50.920;12.050;2023-03-26T05:52:36;7.80;99.90
13123;DHT22;6627;50.920;12.050;2023-03-26T05:55:04;7.80;99.90
13123;DHT22;6627;50.920;12.050;2023-03-26T05:57:33;7.90;99.90
13123;DHT22;6627;50.920;12.050;2023-03-26T06:00:01;7.90;99.90
13123;DHT22;6627;50.920;12.050;2023-03-26T06:02:31;7.90;99.90
13123;DHT22;6627;50.920;12.050;2023-03-26T06:04:59;7.90;99.90
13123;DHT22;6627;50.920;12.050;2023-03-26T06:07:27;7.90;99.90
13123;DHT22;6627;50.920;12.050;2023-03-26T06:09:56;7.90;99.90
13123;DHT22;6627;50.920;12.050;2023-03-26T06:12:23;7.90;99.90
13123;DHT22;6627;50.920;12.050;2023-03-26T06:14:50;7.90;99.90
13123;DHT22;6627;50.920;12.050;2023-03-26T06:17:17;8.00;99.90
13123;DHT22;6627;50.920;12.050;2023-03-26T06:19:44;8.00;99.90
13123;DHT22;6627;50.920;12.050;2023-03-26T06:22:13;8.10;99.90
13123;DHT22;6627;50.920;12.050;2023-03-26T06:24:41;8.20;99.90
13123;DHT22;6627;50.920;12.050;2023-03-26T06:27:08;8.10;99.90
13123;DHT22;6627;50.920;12.050;2023-03-26T06:29:35;8.10;99.90
13123;DHT22;6627;50.920;12.050;2023-03-26T06:32:02;8.10;99.90
13123;DHT22;6627;50.920;12.050;2023-03-26T06:34:30;8.30;99.90
13123;DHT22;6627;50.920;12.050;2023-03-26T06:36:57;8.20;99.90
13123;DHT22;6627;50.920;12.050;2023-03-26T06:39:26;8.30;99.90
13123;DHT22;6627;50.920;12.050;2023-03-26T06:41:53;8.40;99.90
13123;DHT22;6627;50.920;12.050;2023-03-26T06:46:48;8.40;99.90
13123;DHT22;6627;50.920;12.050;2023-03-26T06:49:16;8.40;99.90
13123;DHT22;6627;50.920;12.050;2023-03-26T06:51:44;8.50;99.90
13123;DHT22;6627;50.920;12.050;2023-03-26T06:54:12;8.50;99.90
13123;DHT22;6627;50.920;12.050;2023-03-26T06:56:43;8.60;99.90
13123;DHT22;6627;50.920;12.050;2023-03-26T06:59:10;8.60;99.90
13123;DHT22;6627;50.920;12.050;2023-03-26T07:01:37;8.70;99.90
13123;DHT22;6627;50.920;12.050;2023-03-26T07:04:04;8.70;99.90
13123;DHT22;6627;50.920;12.050;2023-03-26T07:06:31;8.70;99.90
13123;DHT22;6627;50.920;12.050;2023-03-26T07:08:59;8.80;99.90
13123;DHT22;6627;50.920;12.050;2023-03-26T07:11:26;8.90;99.90
13123;DHT22;6627;50.920;12.050;2023-03-26T07:13:55;8.90;85.00
13123;DHT22;6627;50.920;12.050;2023-03-26T07:18:52;9.00;99.90
13123;DHT22;6627;50.920;12.050;2023-03-26T07:21:20;9.00;32.00
13123;DHT22;6627;50.920;12.050;2023-03-26T07:23:48;9.00;1.00
13123;DHT22;6627;50.920;12.050;2023-03-26T07:26:24;9.10;1.00
13123;DHT22;6627;50.920;12.050;2023-03-26T07:29:00;9.20;1.00
13123;DHT22;6627;50.920;12.050;2023-03-26T07:31:44;9.30;1.00
13123;DHT22;6627;50.920;12.050;2023-03-26T07:34:34;9.30;5.30
13123;DHT22;6627;50.920;12.050;2023-03-26T07:37:20;9.30;1.00
13123;DHT22;6627;50.920;12.050;2023-03-26T07:40:01;9.30;1.00
13123;DHT22;6627;50.920;12.050;2023-03-26T07:42:46;9.20;99.90
13123;DHT22;6627;50.920;12.050;2023-03-26T07:45:25;9.30;99.90
13123;DHT22;6627;50.920;12.050;2023-03-26T07:48:00;9.40;1.00
13123;DHT22;6627;50.920;12.050;2023-03-26T07:50:30;9.50;3.80
13123;DHT22;6627;50.920;12.050;2023-03-26T07:52:58;9.50;99.90
13123;DHT22;6627;50.920;12.050;2023-03-26T07:55:26;9.60;1.00
13123;DHT22;6627;50.920;12.050;2023-03-26T07:58:06;9.60;99.90
13123;DHT22;6627;50.920;12.050;2023-03-26T08:00:47;9.80;1.60
13123;DHT22;6627;50.920;12.050;2023-03-26T08:03:30;9.80;99.90
13123;DHT22;6627;50.920;12.050;2023-03-26T08:06:15;9.80;99.90
13123;DHT22;6627;50.920;12.050;2023-03-26T08:08:55;9.80;16.20
13123;DHT22;6627;50.920;12.050;2023-03-26T08:11:33;9.90;1.00
13123;DHT22;6627;50.920;12.050;2023-03-26T08:14:18;9.90;99.90
13123;DHT22;6627;50.920;12.050;2023-03-26T08:16:57;9.90;94.30
13123;DHT22;6627;50.920;12.050;2023-03-26T08:19:47;9.90;1.00
13123;DHT22;6627;50.920;12.050;2023-03-26T08:22:25;9.80;1.00
13123;DHT22;6627;50.920;12.050;2023-03-26T08:25:08;10.10;99.90
13123;DHT22;6627;50.920;12.050;2023-03-26T08:28:05;10.00;99.90
13123;DHT22;6627;50.920;12.050;2023-03-26T08:30:42;10.20;99.90
13123;DHT22;6627;50.920;12.050;2023-03-26T08:33:16;10.40;96.10
13123;DHT22;6627;50.920;12.050;2023-03-26T08:35:47;10.50;1.00
13123;DHT22;6627;50.920;12.050;2023-03-26T08:38:17;10.50;1.00
13123;DHT22;6627;50.920;12.050;2023-03-26T08:41:08;10.70;99.90
13123;DHT22;6627;50.920;12.050;2023-03-26T08:44:47;10.60;56.40
13123;DHT22;6627;50.920;12.050;2023-03-26T08:54:36;10.70;1.00
13123;DHT22;6627;50.920;12.050;2023-03-26T08:57:47;10.80;99.90
13123;DHT22;6627;50.920;12.050;2023-03-26T09:00:54;10.80;99.90
13123;DHT22;6627;50.920;12.050;2023-03-26T09:10:49;10.90;1.00
13123;DHT22;6627;50.920;12.050;2023-03-26T09:13:59;11.00;99.90
13123;DHT22;6627;50.920;12.050;2023-03-26T09:20:13;11.00;99.90
13123;DHT22;6627;50.920;12.050;2023-03-26T09:23:27;11.20;94.10
13123;DHT22;6627;50.920;12.050;2023-03-26T09:26:29;11.20;1.00
13123;DHT22;6627;50.920;12.050;2023-03-26T09:29:51;11.30;1.00
13123;DHT22;6627;50.920;12.050;2023-03-26T09:33:22;11.40;1.00
13123;DHT22;6627;50.920;12.050;2023-03-26T09:36:18;11.50;1.00
13123;DHT22;6627;50.920;12.050;2023-03-26T09:39:05;11.40;99.90
13123;DHT22;6627;50.920;12.050;2023-03-26T09:41:42;11.40;99.90
13123;DHT22;6627;50.920;12.050;2023-03-26T09:44:38;11.40;99.90
13123;DHT22;6627;50.920;12.050;2023-03-26T09:47:46;11.30;18.70
13123;DHT22;6627;50.920;12.050;2023-03-26T09:50:39;11.40;1.00
13123;DHT22;6627;50.920;12.050;2023-03-26T09:53:26;11.40;1.00
13123;DHT22;6627;50.920;12.050;2023-03-26T09:56:24;11.30;1.00
13123;DHT22;6627;50.920;12.050;2023-03-26T09:59:24;11.20;1.00
13123;DHT22;6627;50.920;12.050;2023-03-26T10:02:14;11.20;1.00
13123;DHT22;6627;50.920;12.050;2023-03-26T10:05:24;11.20;99.90
13123;DHT22;6627;50.920;12.050;2023-03-26T10:08:15;11.10;99.90
13123;DHT22;6627;50.920;12.050;2023-03-26T10:10:55;11.20;99.90
13123;DHT22;6627;50.920;12.050;2023-03-26T10:13:33;11.10;99.90
13123;DHT22;6627;50.920;12.050;2023-03-26T10:16:20;11.10;99.90
13123;DHT22;6627;50.920;12.050;2023-03-26T10:19:06;11.10;99.90
13123;DHT22;6627;50.920;12.050;2023-03-26T10:21:52;11.20;99.90
13123;DHT22;6627;50.920;12.050;2023-03-26T10:24:57;11.30;99.90
13123;DHT22;6627;50.920;12.050;2023-03-26T10:27:44;11.40;99.90
13123;DHT22;6627;50.920;12.050;2023-03-26T10:30:27;11.60;99.90
13123;DHT22;6627;50.920;12.050;2023-03-26T10:33:12;11.60;99.90
13123;DHT22;6627;50.920;12.050;2023-03-26T10:35:52;11.60;99.90
13123;DHT22;6627;50.920;12.050;2023-03-26T10:38:45;11.60;82.30
13123;DHT22;6627;50.920;12.050;2023-03-26T10:41:29;11.70;43.90
13123;DHT22;6627;50.920;12.050;2023-03-26T10:44:28;11.70;5.00
13123;DHT22;6627;50.920;12.050;2023-03-26T10:47:39;11.60;1.00
13123;DHT22;6627;50.920;12.050;2023-03-26T10:50:27;11.50;1.00
13123;DHT22;6627;50.920;12.050;2023-03-26T10:53:05;11.30;1.00
13123;DHT22;6627;50.920;12.050;2023-03-26T10:55:38;11.40;1.00
13123;DHT22;6627;50.920;12.050;2023-03-26T10:58:14;11.40;1.00
13123;DHT22;6627;50.920;12.050;2023-03-26T11:00:54;11.40;1.00
13123;DHT22;6627;50.920;12.050;2023-03-26T11:03:45;11.40;1.00
13123;DHT22;6627;50.920;12.050;2023-03-26T11:06:28;11.40;1.00
13123;DHT22;6627;50.920;12.050;2023-03-26T11:09:06;11.40;1.00
13123;DHT22;6627;50.920;12.050;2023-03-26T11:11:50;11.40;1.00
13123;DHT22;6627;50.920;12.050;2023-03-26T11:14:28;11.50;1.00
13123;DHT22;6627;50.920;12.050;2023-03-26T11:17:08;11.50;1.00
13123;DHT22;6627;50.920;12.050;2023-03-26T11:19:46;11.50;99.90
13123;DHT22;6627;50.920;12.050;2023-03-26T11:22:25;11.50;99.90
13123;DHT22;6627;50.920;12.050;2023-03-26T11:25:07;11.50;99.90
13123;DHT22;6627;50.920;12.050;2023-03-26T11:28:05;11.60;99.90
13123;DHT22;6627;50.920;12.050;2023-03-26T11:30:47;11.60;99.90
13123;DHT22;6627;50.920;12.050;2023-03-26T11:33:23;11.50;99.90
13123;DHT22;6627;50.920;12.050;2023-03-26T11:36:00;11.60;99.90
13123;DHT22;6627;50.920;12.050;2023-03-26T11:38:35;11.50;99.90
13123;DHT22;6627;50.920;12.050;2023-03-26T11:41:11;11.50;99.90
13123;DHT22;6627;50.920;12.050;2023-03-26T11:43:42;11.50;99.90
13123;DHT22;6627;50.920;12.050;2023-03-26T11:46:17;11.50;99.90
13123;DHT22;6627;50.920;12.050;2023-03-26T11:48:50;11.40;99.90
13123;DHT22;6627;50.920;12.050;2023-03-26T11:51:28;11.40;99.90
13123;DHT22;6627;50.920;12.050;2023-03-26T11:53:57;11.20;99.90
13123;DHT22;6627;50.920;12.050;2023-03-26T11:56:27;11.20;99.90
13123;DHT22;6627;50.920;12.050;2023-03-26T11:59:01;11.00;99.90
13123;DHT22;6627;50.920;12.050;2023-03-26T12:01:46;11.00;99.90
13123;DHT22;6627;50.920;12.050;2023-03-26T12:04:18;11.00;99.90
13123;DHT22;6627;50.920;12.050;2023-03-26T12:06:54;10.90;99.90
13123;DHT22;6627;50.920;12.050;2023-03-26T12:09:24;10.80;99.90
13123;DHT22;6627;50.920;12.050;2023-03-26T12:11:55;10.70;99.90
13123;DHT22;6627;50.920;12.050;2023-03-26T12:14:29;10.70;99.90
13123;DHT22;6627;50.920;12.050;2023-03-26T12:17:02;10.70;1.00
13123;DHT22;6627;50.920;12.050;2023-03-26T12:19:36;10.50;1.00
13123;DHT22;6627;50.920;12.050;2023-03-26T12:22:25;10.40;6.10
13123;DHT22;6627;50.920;12.050;2023-03-26T12:25:13;10.50;99.90
13123;DHT22;6627;50.920;12.050;2023-03-26T12:27:44;10.40;1.00
13123;DHT22;6627;50.920;12.050;2023-03-26T12:30:19;10.30;1.00
13123;DHT22;6627;50.920;12.050;2023-03-26T12:32:49;10.00;1.00
13123;DHT22;6627;50.920;12.050;2023-03-26T12:35:22;10.00;99.90
13123;DHT22;6627;50.920;12.050;2023-03-26T12:37:55;9.90;1.00
13123;DHT22;6627;50.920;12.050;2023-03-26T12:43:20;9.70;1.00
13123;DHT22;6627;50.920;12.050;2023-03-26T12:45:53;9.60;1.00
13123;DHT22;6627;50.920;12.050;2023-03-26T12:48:24;9.70;60.00
13123;DHT22;6627;50.920;12.050;2023-03-26T12:51:04;9.70;1.00
13123;DHT22;6627;50.920;12.050;2023-03-26T12:53:50;9.60;1.00
13123;DHT22;6627;50.920;12.050;2023-03-26T12:56:30;9.70;1.00
13123;DHT22;6627;50.920;12.050;2023-03-26T12:59:15;9.70;60.30
13123;DHT22;6627;50.920;12.050;2023-03-26T13:02:04;9.70;99.90
13123;DHT22;6627;50.920;12.050;2023-03-26T13:05:05;9.70;99.40
13123;DHT22;6627;50.920;12.050;2023-03-26T13:07:58;9.70;1.00
13123;DHT22;6627;50.920;12.050;2023-03-26T13:10:49;9.60;1.00
13123;DHT22;6627;50.920;12.050;2023-03-26T13:16:43;9.60;1.00
13123;DHT22;6627;50.920;12.050;2023-03-26T13:19:21;9.70;1.00
13123;DHT22;6627;50.920;12.050;2023-03-26T13:22:06;9.60;55.30
13123;DHT22;6627;50.920;12.050;2023-03-26T13:24:47;9.50;99.90
13123;DHT22;6627;50.920;12.050;2023-03-26T13:27:32;9.50;1.00
13123;DHT22;6627;50.920;12.050;2023-03-26T13:30:18;9.60;99.90
13123;DHT22;6627;50.920;12.050;2023-03-26T13:33:06;9.60;1.00
13123;DHT22;6627;50.920;12.050;2023-03-26T13:35:48;9.50;99.90
13123;DHT22;6627;50.920;12.050;2023-03-26T13:38:28;9.50;1.00
13123;DHT22;6627;50.920;12.050;2023-03-26T13:41:13;9.60;99.90
13123;DHT22;6627;50.920;12.050;2023-03-26T13:43:57;9.40;99.90
13123;DHT22;6627;50.920;12.050;2023-03-26T13:46:33;9.50;1.00
13123;DHT22;6627;50.920;12.050;2023-03-26T13:49:07;9.50;1.00
13123;DHT22;6627;50.920;12.050;2023-03-26T13:51:41;9.60;99.90
13123;DHT22;6627;50.920;12.050;2023-03-26T13:54:17;9.50;1.00
13123;DHT22;6627;50.920;12.050;2023-03-26T13:56:53;9.30;1.00
13123;DHT22;6627;50.920;12.050;2023-03-26T13:59:30;9.10;1.00
13123;DHT22;6627;50.920;12.050;2023-03-26T14:02:06;9.10;1.00
13123;DHT22;6627;50.920;12.050;2023-03-26T14:04:40;8.90;1.00
13123;DHT22;6627;50.920;12.050;2023-03-26T14:07:13;8.90;1.00
13123;DHT22;6627;50.920;12.050;2023-03-26T14:09:50;8.90;99.90
13123;DHT22;6627;50.920;12.050;2023-03-26T14:12:43;8.90;1.00
13123;DHT22;6627;50.920;12.050;2023-03-26T14:15:22;8.90;1.00
13123;DHT22;6627;50.920;12.050;2023-03-26T14:18:00;9.00;1.00
13123;DHT22;6627;50.920;12.050;2023-03-26T14:20:54;9.00;1.00
13123;DHT22;6627;50.920;12.050;2023-03-26T14:23:59;9.00;32.00
13123;DHT22;6627;50.920;12.050;2023-03-26T14:26:57;9.00;1.00
13123;DHT22;6627;50.920;12.050;2023-03-26T14:29:55;8.90;99.90
13123;DHT22;6627;50.920;12.050;2023-03-26T14:32:54;9.10;99.90
13123;DHT22;6627;50.920;12.050;2023-03-26T14:35:34;9.10;99.90
13123;DHT22;6627;50.920;12.050;2023-03-26T14:38:29;9.00;1.00
13123;DHT22;6627;50.920;12.050;2023-03-26T14:41:20;9.00;1.00
13123;DHT22;6627;50.920;12.050;2023-03-26T14:47:16;9.10;99.90
13123;DHT22;6627;50.920;12.050;2023-03-26T14:50:23;9.00;1.00
13123;DHT22;6627;50.920;12.050;2023-03-26T14:53:24;9.00;1.00
13123;DHT22;6627;50.920;12.050;2023-03-26T15:03:28;8.90;99.90
13123;DHT22;6627;50.920;12.050;2023-03-26T15:10:10;8.90;99.90
13123;DHT22;6627;50.920;12.050;2023-03-26T15:12:59;8.90;99.90
13123;DHT22;6627;50.920;12.050;2023-03-26T15:16:10;8.90;99.90
13123;DHT22;6627;50.920;12.050;2023-03-26T15:19:19;8.90;99.90
13123;DHT22;6627;50.920;12.050;2023-03-26T15:22:39;8.70;99.90
13123;DHT22;6627;50.920;12.050;2023-03-26T15:25:50;8.70;99.90
13123;DHT22;6627;50.920;12.050;2023-03-26T15:29:00;8.70;99.90
13123;DHT22;6627;50.920;12.050;2023-03-26T15:32:03;8.60;99.90
13123;DHT22;6627;50.920;12.050;2023-03-26T15:41:15;8.50;99.90
13123;DHT22;6627;50.920;12.050;2023-03-26T15:44:07;8.30;99.90
13123;DHT22;6627;50.920;12.050;2023-03-26T15:46:54;8.30;99.90
13123;DHT22;6627;50.920;12.050;2023-03-26T15:49:34;8.10;99.90
13123;DHT22;6627;50.920;12.050;2023-03-26T15:52:17;8.00;99.90
13123;DHT22;6627;50.920;12.050;2023-03-26T15:54:59;8.00;99.90
13123;DHT22;6627;50.920;12.050;2023-03-26T16:00:18;7.90;99.90
13123;DHT22;6627;50.920;12.050;2023-03-26T16:03:00;7.90;99.90
13123;DHT22;6627;50.920;12.050;2023-03-26T16:06:16;8.00;99.90
13123;DHT22;6627;50.920;12.050;2023-03-26T16:09:07;8.00;99.90
13123;DHT22;6627;50.920;12.050;2023-03-26T16:11:56;8.00;99.90
13123;DHT22;6627;50.920;12.050;2023-03-26T16:14:41;8.00;99.90
13123;DHT22;6627;50.920;12.050;2023-03-26T16:17:12;7.90;99.90
13123;DHT22;6627;50.920;12.050;2023-03-26T16:19:48;8.00;99.90
13123;DHT22;6627;50.920;12.050;2023-03-26T16:22:37;8.10;99.90
13123;DHT22;6627;50.920;12.050;2023-03-26T16:25:26;8.20;99.90
13123;DHT22;6627;50.920;12.050;2023-03-26T16:28:21;8.20;99.90
13123;DHT22;6627;50.920;12.050;2023-03-26T16:31:18;8.20;99.90
13123;DHT22;6627;50.920;12.050;2023-03-26T16:33:52;8.10;99.90
13123;DHT22;6627;50.920;12.050;2023-03-26T16:36:34;8.20;99.90
13123;DHT22;6627;50.920;12.050;2023-03-26T16:39:18;8.10;99.90
13123;DHT22;6627;50.920;12.050;2023-03-26T16:41:56;8.10;99.90
13123;DHT22;6627;50.920;12.050;2023-03-26T16:47:18;8.00;99.90
13123;DHT22;6627;50.920;12.050;2023-03-26T16:49:53;8.00;99.90
13123;DHT22;6627;50.920;12.050;2023-03-26T16:52:39;8.00;99.90
13123;DHT22;6627;50.920;12.050;2023-03-26T16:55:17;7.90;99.90
13123;DHT22;6627;50.920;12.050;2023-03-26T16:58:00;7.90;99.90
13123;DHT22;6627;50.920;12.050;2023-03-26T17:00:41;8.10;99.90
13123;DHT22;6627;50.920;12.050;2023-03-26T17:03:31;8.00;99.90
13123;DHT22;6627;50.920;12.050;2023-03-26T17:06:27;7.90;99.90
13123;DHT22;6627;50.920;12.050;2023-03-26T17:09:16;7.80;99.90
13123;DHT22;6627;50.920;12.050;2023-03-26T17:11:56;7.80;99.90
13123;DHT22;6627;50.920;12.050;2023-03-26T17:14:41;7.80;99.90
13123;DHT22;6627;50.920;12.050;2023-03-26T17:17:31;7.70;99.90
13123;DHT22;6627;50.920;12.050;2023-03-26T17:20:26;7.70;99.90
13123;DHT22;6627;50.920;12.050;2023-03-26T17:23:08;7.70;99.90
13123;DHT22;6627;50.920;12.050;2023-03-26T17:28:41;7.80;99.90
13123;DHT22;6627;50.920;12.050;2023-03-26T17:31:23;7.80;99.90
13123;DHT22;6627;50.920;12.050;2023-03-26T17:37:46;7.80;99.90
13123;DHT22;6627;50.920;12.050;2023-03-26T17:40:45;7.80;99.90
13123;DHT22;6627;50.920;12.050;2023-03-26T17:43:38;7.70;99.90
13123;DHT22;6627;50.920;12.050;2023-03-26T17:46:25;7.70;99.90
13123;DHT22;6627;50.920;12.050;2023-03-26T17:49:00;7.70;99.90
13123;DHT22;6627;50.920;12.050;2023-03-26T17:51:43;7.60;99.90
13123;DHT22;6627;50.920;12.050;2023-03-26T17:54:21;7.70;99.90
13123;DHT22;6627;50.920;12.050;2023-03-26T17:56:51;7.60;99.90
13123;DHT22;6627;50.920;12.050;2023-03-26T17:59:22;7.60;99.90
13123;DHT22;6627;50.920;12.050;2023-03-26T18:04:28;7.70;99.90